Time;durP1;ratioP1;P1;durP2;ratioP2;P2;SDS_P1;SDS_P2;PMS_P1;PMS_P2;Temp;Humidity;BMP_temperature;BMP_pressure;BME280_temperature;BME280_humidity;BME280_pressure;Samples;Min_cycle;Max_cycle;Signal;HPM_P1;HPM_P2
2022/10/02 00:00:21;;;;;;;11.32;3.30;;;12.50;99.90;;;;;;5014426;28;20236;-73
2022/10/02 00:02:52;;;;;;;6.00;2.80;;;12.60;99.90;;;;;;5014435;28;20293;-74
2022/10/02 00:05:22;;;;;;;7.57;3.28;;;12.60;99.90;;;;;;5013633;28;20237;-74
2022/10/02 00:07:55;;;;;;;14.00;4.63;;;12.70;99.90;;;;;;5011337;28;20640;-72
2022/10/02 00:10:25;;;;;;;7.95;2.30;;;12.70;99.90;;;;;;5014753;28;20247;-74
2022/10/02 00:12:57;;;;;;;5.43;2.50;;;12.70;99.90;;;;;;5014667;28;20242;-73
2022/10/02 00:15:27;;;;;;;7.70;2.50;;;12.70;99.90;;;;;;5014620;28;20199;-74
2022/10/02 00:17:58;;;;;;;3.78;1.98;;;12.70;99.90;;;;;;5014774;28;20322;-75
2022/10/02 00:20:34;;;;;;;7.13;2.38;;;12.70;99.90;;;;;;5010940;28;20200;-74
2022/10/02 00:23:05;;;;;;;6.72;2.85;;;12.80;99.90;;;;;;5013201;28;20271;-74
2022/10/02 00:25:39;;;;;;;5.32;2.33;;;12.60;99.90;;;;;;5011552;28;20290;-73
2022/10/02 00:28:22;;;;;;;8.55;2.15;;;12.60;99.90;;;;;;5014102;28;20226;-74
2022/10/02 00:31:05;;;;;;;6.55;1.95;;;12.60;99.90;;;;;;5012483;28;20280;-74
2022/10/02 00:33:44;;;;;;;11.10;2.28;;;12.50;99.90;;;;;;5013184;28;20197;-73
2022/10/02 00:36:24;;;;;;;10.98;2.40;;;12.60;99.90;;;;;;5007991;28;20653;-73
2022/10/02 00:39:00;;;;;;;11.15;3.15;;;12.60;99.90;;;;;;5013018;28;20558;-73
2022/10/02 00:41:59;;;;;;;5.47;2.55;;;12.60;99.90;;;;;;5013649;28;20265;-73
2022/10/02 00:44:47;;;;;;;13.77;3.63;;;12.60;99.90;;;;;;5010664;28;20303;-72
2022/10/02 00:47:21;;;;;;;10.82;2.63;;;12.70;99.90;;;;;;5008335;28;20228;-73
2022/10/02 00:49:57;;;;;;;5.28;2.60;;;12.60;99.90;;;;;;5012236;28;20246;-73
2022/10/02 00:52:46;;;;;;;12.65;3.25;;;12.60;99.90;;;;;;5010523;28;20291;-72
2022/10/02 00:55:34;;;;;;;5.80;2.13;;;12.60;99.90;;;;;;5008166;28;20279;-74
2022/10/02 00:58:11;;;;;;;5.97;2.65;;;12.60;99.90;;;;;;5012553;28;20320;-74
2022/10/02 01:00:45;;;;;;;7.93;3.40;;;12.70;99.90;;;;;;5011744;28;20258;-73
2022/10/02 01:03:18;;;;;;;9.57;3.38;;;12.60;99.90;;;;;;5011610;28;20571;-73
2022/10/02 01:05:45;;;;;;;7.00;3.22;;;12.60;99.90;;;;;;5014595;28;20664;-72
2022/10/02 01:08:13;;;;;;;7.97;3.05;;;12.50;99.90;;;;;;5013391;28;20228;-73
2022/10/02 01:10:40;;;;;;;4.22;2.13;;;12.40;99.90;;;;;;5012819;28;20629;-73
2022/10/02 01:13:07;;;;;;;8.70;3.05;;;12.40;99.90;;;;;;5015210;28;21421;-73
2022/10/02 01:15:38;;;;;;;6.18;2.75;;;12.40;99.90;;;;;;5013083;28;20197;-73
2022/10/02 01:18:07;;;;;;;6.50;4.57;;;12.40;99.90;;;;;;5015959;28;20610;-73
2022/10/02 01:20:40;;;;;;;9.43;3.28;;;12.50;99.90;;;;;;5012600;28;20238;-76
2022/10/02 01:23:16;;;;;;;6.35;3.08;;;12.50;99.90;;;;;;5013570;28;20563;-72
2022/10/02 01:25:45;;;;;;;6.45;3.90;;;12.50;99.90;;;;;;5011942;28;20212;-72
2022/10/02 01:28:12;;;;;;;9.23;2.90;;;12.60;99.90;;;;;;5013005;28;20227;-73
2022/10/02 01:30:42;;;;;;;7.85;3.53;;;12.60;99.90;;;;;;5012889;28;20295;-72
2022/10/02 01:33:12;;;;;;;12.82;3.80;;;12.60;99.90;;;;;;5016509;28;20307;-74
2022/10/02 01:35:39;;;;;;;11.75;3.67;;;12.60;99.90;;;;;;5022270;28;20211;-75
2022/10/02 01:38:09;;;;;;;10.57;4.68;;;12.60;99.90;;;;;;5021998;28;20227;-72
2022/10/02 01:40:38;;;;;;;7.72;4.03;;;12.70;99.90;;;;;;5013425;28;20258;-74
2022/10/02 01:43:12;;;;;;;9.40;5.80;;;12.60;99.90;;;;;;5010630;28;20306;-74
2022/10/02 01:45:52;;;;;;;11.30;4.20;;;12.60;99.90;;;;;;5012961;28;20939;-72
2022/10/02 01:48:30;;;;;;;10.75;4.85;;;12.60;99.90;;;;;;5011332;28;20311;-74
2022/10/02 01:51:10;;;;;;;15.00;5.00;;;12.60;99.90;;;;;;5005464;28;20241;-73
2022/10/02 01:53:45;;;;;;;11.57;5.80;;;12.50;99.90;;;;;;5011514;28;20254;-73
2022/10/02 01:56:17;;;;;;;14.30;5.82;;;12.50;99.90;;;;;;5009726;28;20203;-73
2022/10/02 01:58:58;;;;;;;11.05;4.80;;;12.60;99.90;;;;;;5010793;28;20247;-73
2022/10/02 02:01:36;;;;;;;13.70;5.10;;;12.60;99.90;;;;;;5009002;28;20654;-74
2022/10/02 02:04:13;;;;;;;19.77;6.00;;;12.60;99.90;;;;;;5011519;28;20655;-73
2022/10/02 02:06:49;;;;;;;14.57;5.22;;;12.60;99.90;;;;;;5010867;28;20632;-74
2022/10/02 02:09:21;;;;;;;13.05;5.45;;;12.60;99.90;;;;;;5011744;28;20189;-73
2022/10/02 02:11:54;;;;;;;12.60;4.95;;;12.60;99.90;;;;;;5011280;28;20632;-74
2022/10/02 02:14:29;;;;;;;12.85;6.47;;;12.60;99.90;;;;;;5012819;28;20288;-74
2022/10/02 02:17:03;;;;;;;6.55;3.85;;;12.70;99.90;;;;;;5016106;28;20211;-75
2022/10/02 02:19:35;;;;;;;13.10;4.60;;;12.60;99.90;;;;;;5011272;28;20247;-73
2022/10/02 02:22:08;;;;;;;14.20;3.95;;;12.60;99.90;;;;;;5007776;28;20296;-73
2022/10/02 02:24:39;;;;;;;8.23;3.45;;;12.70;99.90;;;;;;5013578;28;20212;-72
2022/10/02 02:27:11;;;;;;;6.72;4.95;;;12.60;99.90;;;;;;5012881;28;20223;-74
2022/10/02 02:29:41;;;;;;;14.35;5.45;;;12.60;99.90;;;;;;5014640;28;20283;-74
2022/10/02 02:32:10;;;;;;;6.00;3.63;;;12.60;99.90;;;;;;5019731;28;20247;-74
2022/10/02 02:34:42;;;;;;;12.48;4.55;;;12.50;99.90;;;;;;5023105;28;20200;-73
2022/10/02 02:37:15;;;;;;;8.40;3.80;;;12.40;99.90;;;;;;5024991;28;20256;-73
2022/10/02 02:39:48;;;;;;;18.05;6.32;;;12.40;99.90;;;;;;5018191;28;20224;-72
2022/10/02 02:42:19;;;;;;;13.38;4.57;;;12.40;99.90;;;;;;5012004;28;20271;-73
2022/10/02 02:44:53;;;;;;;10.32;4.28;;;12.40;99.90;;;;;;5012445;28;20561;-73
2022/10/02 02:47:24;;;;;;;18.42;5.45;;;12.30;99.90;;;;;;5012540;28;20251;-72
2022/10/02 02:49:56;;;;;;;11.77;5.63;;;12.30;99.90;;;;;;5011149;28;20236;-73
2022/10/02 02:52:26;;;;;;;8.40;5.13;;;12.20;99.90;;;;;;5012250;28;20239;-73
2022/10/02 02:55:00;;;;;;;17.00;7.07;;;12.20;99.90;;;;;;5010073;28;20295;-74
2022/10/02 02:57:34;;;;;;;15.57;7.00;;;12.20;99.90;;;;;;5012550;28;20313;-74
2022/10/02 03:00:04;;;;;;;16.90;7.10;;;12.10;99.90;;;;;;5011519;28;20581;-73
2022/10/02 03:02:32;;;;;;;13.52;7.70;;;12.10;99.90;;;;;;5011990;28;20202;-73
2022/10/02 03:04:59;;;;;;;19.65;10.85;;;12.10;99.90;;;;;;5012327;28;20320;-73
2022/10/02 03:07:26;;;;;;;14.15;7.55;;;12.00;99.90;;;;;;5011403;28;20237;-73
2022/10/02 03:10:02;;;;;;;15.23;7.50;;;12.00;99.90;;;;;;5011508;28;20302;-73
2022/10/02 03:12:40;;;;;;;14.07;8.43;;;12.00;99.90;;;;;;5010898;28;20285;-74
2022/10/02 03:15:28;;;;;;;15.88;10.25;;;12.00;99.90;;;;;;5012199;28;20279;-73
2022/10/02 03:18:15;;;;;;;21.60;9.55;;;11.90;99.90;;;;;;5012416;28;20255;-73
2022/10/02 03:20:51;;;;;;;25.08;10.77;;;11.90;99.90;;;;;;5014463;28;20202;-72
2022/10/02 03:23:36;;;;;;;21.13;11.63;;;11.90;99.90;;;;;;5029218;28;20211;-73
2022/10/02 03:26:08;;;;;;;21.42;10.38;;;11.90;99.90;;;;;;5000877;28;20636;-74
2022/10/02 03:28:39;;;;;;;20.65;11.27;;;11.90;99.90;;;;;;5012730;28;20347;-72
2022/10/02 03:31:08;;;;;;;21.95;12.00;;;11.90;99.90;;;;;;5006241;28;20197;-75
2022/10/02 03:33:37;;;;;;;20.00;11.98;;;11.90;99.90;;;;;;5012154;28;20240;-73
2022/10/02 03:36:06;;;;;;;22.27;13.25;;;11.90;99.90;;;;;;5012304;28;20218;-73
2022/10/02 03:38:34;;;;;;;18.98;14.02;;;11.90;99.90;;;;;;5012276;28;20319;-74
2022/10/02 03:41:02;;;;;;;27.13;14.88;;;11.90;99.90;;;;;;5014754;28;20236;-73
2022/10/02 03:43:30;;;;;;;25.75;13.85;;;11.90;99.90;;;;;;5015925;28;20290;-72
2022/10/02 03:45:57;;;;;;;21.52;13.48;;;11.90;99.90;;;;;;5015434;28;20208;-74
2022/10/02 03:48:26;;;;;;;32.88;15.65;;;11.90;99.90;;;;;;5015974;28;20256;-73
2022/10/02 03:50:52;;;;;;;17.45;12.45;;;11.90;99.90;;;;;;5019031;28;20227;-73
2022/10/02 03:53:21;;;;;;;16.95;11.15;;;11.90;99.90;;;;;;5020146;28;20212;-73
2022/10/02 03:55:52;;;;;;;19.38;11.55;;;11.90;99.90;;;;;;5022671;28;20239;-74
2022/10/02 03:58:19;;;;;;;19.83;13.75;;;11.90;99.90;;;;;;5026911;28;20265;-73
2022/10/02 04:00:55;;;;;;;24.88;15.05;;;11.90;99.90;;;;;;5019818;28;20243;-73
2022/10/02 04:03:27;;;;;;;23.75;12.38;;;11.90;99.90;;;;;;5015530;28;20613;-73
2022/10/02 04:06:00;;;;;;;12.63;10.30;;;11.90;99.90;;;;;;5015292;28;20200;-72
2022/10/02 04:08:31;;;;;;;22.70;11.18;;;11.80;99.90;;;;;;5013297;28;20231;-73
2022/10/02 04:11:06;;;;;;;26.88;11.65;;;11.90;99.90;;;;;;5008920;28;20295;-73
2022/10/02 04:13:37;;;;;;;20.30;11.25;;;11.90;99.90;;;;;;5013370;28;20203;-73
2022/10/02 04:16:12;;;;;;;22.23;11.05;;;11.90;99.90;;;;;;5014577;28;20689;-74
2022/10/02 04:18:49;;;;;;;25.23;11.15;;;11.90;99.90;;;;;;5014201;28;20230;-73
2022/10/02 04:21:26;;;;;;;17.90;9.70;;;11.90;99.90;;;;;;5013056;28;20302;-73
2022/10/02 04:23:58;;;;;;;22.13;10.48;;;11.80;99.90;;;;;;5011288;28;20238;-74
2022/10/02 04:26:29;;;;;;;20.70;9.40;;;11.90;99.90;;;;;;5011505;28;20305;-74
2022/10/02 04:29:02;;;;;;;18.70;9.60;;;11.80;99.90;;;;;;5014559;28;20330;-73
2022/10/02 04:31:29;;;;;;;19.35;11.13;;;11.80;99.90;;;;;;5013966;28;20218;-73
2022/10/02 04:34:01;;;;;;;24.02;9.55;;;11.80;99.90;;;;;;5014482;28;20202;-73
2022/10/02 04:36:40;;;;;;;21.17;8.50;;;11.80;99.90;;;;;;5013218;28;20280;-73
2022/10/02 04:39:29;;;;;;;24.85;8.85;;;11.80;99.90;;;;;;5013071;28;20306;-73
2022/10/02 04:42:16;;;;;;;19.85;8.75;;;11.80;99.90;;;;;;5006167;28;20704;-73
2022/10/02 04:45:13;;;;;;;17.70;8.73;;;11.90;99.90;;;;;;5012684;28;20842;-74
2022/10/02 04:48:09;;;;;;;21.25;8.23;;;12.00;99.90;;;;;;5013973;28;20704;-73
2022/10/02 04:50:46;;;;;;;16.85;8.50;;;12.00;99.90;;;;;;4973305;28;20298;-73
2022/10/02 04:53:28;;;;;;;24.75;7.15;;;12.00;99.90;;;;;;5011543;28;20637;-73
2022/10/02 04:56:39;;;;;;;18.55;7.75;;;12.00;99.90;;;;;;5013754;28;20294;-73
2022/10/02 04:59:19;;;;;;;18.88;7.65;;;12.00;99.90;;;;;;4984412;28;20315;-73
2022/10/02 05:02:06;;;;;;;20.13;8.48;;;12.00;99.90;;;;;;5014254;28;20232;-73
2022/10/02 05:04:51;;;;;;;14.60;7.15;;;11.90;99.90;;;;;;5015813;28;20610;-75
2022/10/02 05:07:47;;;;;;;21.83;7.80;;;12.00;99.90;;;;;;5016290;28;20259;-73
2022/10/02 05:10:37;;;;;;;27.42;7.85;;;12.00;99.90;;;;;;5017614;28;20327;-74
2022/10/02 05:13:18;;;;;;;14.80;7.18;;;12.00;99.90;;;;;;5009228;28;20662;-74
2022/10/02 05:15:56;;;;;;;18.67;7.20;;;12.10;99.90;;;;;;5018746;28;20242;-74
2022/10/02 05:18:58;;;;;;;18.90;8.07;;;12.10;99.90;;;;;;5019109;28;20267;-74
2022/10/02 05:21:40;;;;;;;15.88;6.55;;;12.10;99.90;;;;;;5024901;28;20227;-73
2022/10/02 05:24:27;;;;;;;14.90;6.20;;;12.10;99.90;;;;;;5019435;28;20284;-75
2022/10/02 05:27:18;;;;;;;17.48;6.90;;;12.20;99.90;;;;;;5001357;28;20287;-73
2022/10/02 05:30:05;;;;;;;19.92;8.27;;;12.20;99.90;;;;;;5012818;28;20240;-71
2022/10/02 05:32:49;;;;;;;27.65;8.15;;;12.30;99.90;;;;;;5013001;28;20208;-71
2022/10/02 05:35:32;;;;;;;22.48;6.30;;;12.30;99.90;;;;;;5012156;28;20200;-71
2022/10/02 05:38:11;;;;;;;16.63;6.43;;;12.20;99.90;;;;;;5012764;28;20231;-71
2022/10/02 05:40:46;;;;;;;20.17;7.47;;;12.20;99.90;;;;;;5007047;28;20331;-71
2022/10/02 05:43:17;;;;;;;22.98;7.43;;;12.20;99.90;;;;;;5011253;28;20302;-72
2022/10/02 05:45:50;;;;;;;16.50;6.80;;;12.30;99.90;;;;;;5010827;28;20231;-72
2022/10/02 05:48:23;;;;;;;18.77;8.13;;;12.30;99.90;;;;;;5009172;28;20709;-72
2022/10/02 05:50:55;;;;;;;23.08;7.53;;;12.30;99.90;;;;;;5012611;28;20662;-73
2022/10/02 05:53:34;;;;;;;20.70;9.25;;;12.40;99.90;;;;;;5011652;28;20684;-74
2022/10/02 05:56:09;;;;;;;24.55;7.65;;;12.30;99.90;;;;;;5007104;28;20199;-72
2022/10/02 05:58:40;;;;;;;17.92;7.78;;;12.40;99.90;;;;;;5014510;28;20262;-75
2022/10/02 06:01:13;;;;;;;15.80;6.43;;;12.50;99.90;;;;;;5013498;28;20267;-72
2022/10/02 06:03:45;;;;;;;13.65;7.80;;;12.50;99.90;;;;;;5014143;28;20204;-74
2022/10/02 06:06:15;;;;;;;28.80;7.38;;;12.60;99.90;;;;;;5007898;28;20259;-73
2022/10/02 06:08:47;;;;;;;16.42;7.35;;;12.60;99.90;;;;;;5011186;28;20650;-74
2022/10/02 06:11:20;;;;;;;19.35;7.40;;;12.70;99.90;;;;;;5012018;28;20228;-74
2022/10/02 06:13:52;;;;;;;24.25;6.63;;;12.80;99.90;;;;;;5012236;28;20594;-73
2022/10/02 06:16:25;;;;;;;14.00;7.75;;;12.80;99.90;;;;;;5012625;28;20243;-74
2022/10/02 06:18:56;;;;;;;11.82;6.68;;;12.80;99.90;;;;;;5015101;28;20230;-73
2022/10/02 06:21:31;;;;;;;19.27;7.60;;;12.80;99.90;;;;;;5012707;28;20239;-75
2022/10/02 06:24:02;;;;;;;21.20;7.75;;;12.80;99.90;;;;;;5013286;28;20196;-73
2022/10/02 06:26:41;;;;;;;22.42;7.25;;;12.90;99.90;;;;;;5021940;28;20197;-76
2022/10/02 06:29:16;;;;;;;17.80;7.05;;;12.80;99.90;;;;;;5026301;28;20202;-74
2022/10/02 06:31:48;;;;;;;23.98;9.20;;;13.00;99.90;;;;;;5026595;28;20223;-74
2022/10/02 06:34:15;;;;;;;16.80;7.20;;;12.90;99.90;;;;;;5026861;28;20273;-74
2022/10/02 06:37:06;;;;;;;19.00;6.30;;;13.00;99.90;;;;;;5018261;28;20197;-73
2022/10/02 06:39:48;;;;;;;14.45;5.97;;;13.60;99.90;;;;;;5010977;28;20216;-73
2022/10/02 06:42:28;;;;;;;12.48;4.47;;;14.20;99.90;;;;;;5012142;28;20312;-74
2022/10/02 06:45:07;;;;;;;15.27;3.75;;;15.00;99.90;;;;;;5011723;28;20289;-74
2022/10/02 06:47:56;;;;;;;13.63;4.60;;;15.60;99.90;;;;;;5010855;28;20257;-74
2022/10/02 06:50:42;;;;;;;7.83;3.83;;;16.40;99.90;;;;;;5012343;28;20439;-73
2022/10/02 06:53:24;;;;;;;14.47;3.40;;;17.50;99.90;;;;;;5021378;28;20423;-74
2022/10/02 06:56:07;;;;;;;7.27;3.50;;;18.40;99.90;;;;;;5022322;28;20455;-75
2022/10/02 06:58:54;;;;;;;7.80;2.67;;;18.70;99.90;;;;;;5012717;28;20518;-73
2022/10/02 07:01:31;;;;;;;12.67;2.97;;;19.20;99.90;;;;;;5011605;28;20489;-74
2022/10/02 07:04:12;;;;;;;10.40;3.67;;;19.60;99.90;;;;;;5012720;28;20449;-73
2022/10/02 07:06:50;;;;;;;13.80;5.10;;;20.10;99.90;;;;;;5011161;28;20459;-74
2022/10/02 07:09:39;;;;;;;7.43;3.27;;;19.80;99.90;;;;;;5012670;28;20563;-74
2022/10/02 07:12:26;;;;;;;14.40;4.73;;;18.80;99.90;;;;;;5011048;28;20946;-74
2022/10/02 07:15:10;;;;;;;11.20;3.80;;;18.50;99.90;;;;;;5014301;28;20467;-76
2022/10/02 07:17:48;;;;;;;10.30;3.93;;;18.20;99.90;;;;;;5015990;28;20475;-75
2022/10/02 07:20:30;;;;;;;14.13;4.07;;;17.80;99.90;;;;;;5014560;28;20558;-75
2022/10/02 07:23:24;;;;;;;10.53;3.57;;;17.10;99.90;;;;;;5010115;28;20450;-75
2022/10/02 07:26:10;;;;;;;16.53;4.47;;;16.40;99.90;;;;;;5016256;28;20450;-76
2022/10/02 07:28:42;;;;;;;8.00;4.13;;;16.00;99.90;;;;;;5016778;28;20466;-74
2022/10/02 07:31:21;;;;;;;9.13;3.33;;;15.70;99.90;;;;;;5013823;28;20227;-75
2022/10/02 07:34:12;;;;;;;8.30;2.97;;;16.50;99.90;;;;;;5012314;28;20439;-75
2022/10/02 07:36:50;;;;;;;9.50;2.40;;;17.70;99.90;;;;;;5014768;28;20452;-76
2022/10/02 07:39:31;;;;;;;11.00;2.43;;;18.90;99.90;;;;;;5014896;28;20440;-75
2022/10/02 07:42:16;;;;;;;5.73;2.40;;;20.00;99.90;;;;;;5010014;28;20447;-74
2022/10/02 07:45:07;;;;;;;6.63;2.87;;;21.20;99.90;;;;;;5014926;28;20538;-74
2022/10/02 07:48:10;;;;;;;7.10;2.30;;;21.90;99.90;;;;;;5016003;28;20634;-73
2022/10/02 07:50:49;;;;;;;9.00;3.90;;;21.90;99.90;;;;;;5008169;28;20482;-73
2022/10/02 07:53:41;;;;;;;8.00;2.20;;;22.50;99.90;;;;;;5020208;28;20447;-77
2022/10/02 07:56:18;;;;;;;7.20;2.77;;;22.60;99.90;;;;;;5031259;28;20448;-76
2022/10/02 07:58:51;;;;;;;9.80;3.67;;;23.60;99.90;;;;;;5019605;28;20973;-74
2022/10/02 08:01:24;;;;;;;7.73;2.23;;;24.20;97.80;;;;;;5019667;28;20557;-76
2022/10/02 08:03:56;;;;;;;9.03;3.60;;;24.20;96.60;;;;;;5017284;28;20623;-75
2022/10/02 08:06:25;;;;;;;6.37;2.63;;;24.80;95.80;;;;;;5024761;28;20499;-78
2022/10/02 08:08:57;;;;;;;12.20;3.23;;;24.60;93.80;;;;;;5022910;28;20468;-74
2022/10/02 08:11:31;;;;;;;8.10;2.93;;;24.80;94.80;;;;;;5015657;28;20523;-77
2022/10/02 08:14:02;;;;;;;8.43;3.40;;;24.70;93.80;;;;;;5017074;28;20444;-77
2022/10/02 08:16:35;;;;;;;8.73;2.73;;;24.70;94.00;;;;;;5015854;28;20458;-74
2022/10/02 08:19:07;;;;;;;6.63;2.90;;;25.10;94.00;;;;;;5014867;28;20467;-74
2022/10/02 08:21:40;;;;;;;7.30;2.50;;;25.00;92.80;;;;;;5015297;28;20542;-75
2022/10/02 08:24:12;;;;;;;14.10;3.13;;;24.40;93.60;;;;;;5015200;28;20458;-77
2022/10/02 08:26:43;;;;;;;18.17;3.20;;;23.50;95.40;;;;;;5015020;28;20535;-77
2022/10/02 08:29:17;;;;;;;6.80;2.73;;;23.30;96.00;;;;;;5015245;28;20530;-76
2022/10/02 08:31:44;;;;;;;10.03;2.50;;;23.50;96.50;;;;;;5015143;28;20762;-75
2022/10/02 08:34:17;;;;;;;11.50;3.40;;;23.40;96.10;;;;;;5015356;28;20480;-77
2022/10/02 08:37:01;;;;;;;7.00;2.70;;;22.80;97.50;;;;;;5014585;28;20471;-76
2022/10/02 08:39:46;;;;;;;9.40;2.40;;;23.30;97.20;;;;;;5019185;28;20482;-77
2022/10/02 08:42:34;;;;;;;6.67;2.33;;;24.80;94.80;;;;;;5030259;28;20479;-75
2022/10/02 08:45:33;;;;;;;12.20;2.53;;;25.10;92.80;;;;;;5017872;28;20452;-75
2022/10/02 08:48:38;;;;;;;7.47;3.40;;;25.60;92.70;;;;;;5012262;28;20502;-75
2022/10/02 08:51:35;;;;;;;5.90;2.23;;;26.70;91.00;;;;;;5009108;28;20439;-76
2022/10/02 08:54:35;;;;;;;9.67;3.20;;;26.30;88.60;;;;;;4994739;28;20476;-75
2022/10/02 08:57:21;;;;;;;9.10;3.37;;;24.90;91.50;;;;;;5025012;28;20499;-73
2022/10/02 09:00:13;;;;;;;9.83;2.83;;;23.80;92.80;;;;;;5024153;28;20503;-74
2022/10/02 09:03:18;;;;;;;11.03;3.87;;;23.10;94.80;;;;;;5030956;28;20493;-77
2022/10/02 09:06:35;;;;;;;7.33;3.03;;;23.00;95.70;;;;;;5014088;28;20475;-78
2022/10/02 09:09:35;;;;;;;10.03;4.17;;;23.50;95.00;;;;;;5008365;28;20498;-75
2022/10/02 09:12:29;;;;;;;11.90;2.90;;;23.80;94.60;;;;;;5014381;28;20436;-77
2022/10/02 09:15:09;;;;;;;12.73;3.23;;;22.70;96.00;;;;;;5012891;28;20531;-77
2022/10/02 09:17:48;;;;;;;8.47;2.80;;;21.90;98.10;;;;;;5011252;28;20482;-75
2022/10/02 09:20:41;;;;;;;7.60;3.27;;;21.00;99.90;;;;;;5013930;28;20998;-76
2022/10/02 09:23:43;;;;;;;13.93;4.27;;;20.20;99.90;;;;;;5013497;28;20485;-75
2022/10/02 09:26:25;;;;;;;11.00;2.87;;;20.40;99.90;;;;;;5003232;28;20447;-77
2022/10/02 09:29:22;;;;;;;5.77;2.50;;;21.60;99.90;;;;;;5013937;28;20518;-77
2022/10/02 09:32:20;;;;;;;8.30;2.33;;;23.00;99.40;;;;;;5014053;28;20460;-77
2022/10/02 09:35:25;;;;;;;7.73;3.37;;;23.60;97.10;;;;;;5014114;28;20815;-76
2022/10/02 09:38:31;;;;;;;9.57;2.57;;;22.90;96.00;;;;;;5009905;28;20495;-75
2022/10/02 09:41:45;;;;;;;11.43;3.57;;;22.10;97.90;;;;;;5008330;28;20468;-79
2022/10/02 09:44:38;;;;;;;7.50;2.13;;;21.90;97.80;;;;;;4982677;28;20456;-77
2022/10/02 09:47:42;;;;;;;8.50;2.17;;;21.80;98.70;;;;;;5011372;28;20798;-76
2022/10/02 09:50:39;;;;;;;12.57;2.93;;;21.50;96.90;;;;;;5008926;28;20542;-76
2022/10/02 09:53:37;;;;;;;11.50;2.40;;;21.10;97.70;;;;;;5012115;28;20454;-77
2022/10/02 09:56:49;;;;;;;8.77;1.67;;;20.60;98.80;;;;;;5011439;28;20441;-76
2022/10/02 09:59:47;;;;;;;7.63;2.13;;;20.10;99.40;;;;;;4993169;28;20523;-75
2022/10/02 10:02:53;;;;;;;6.20;2.50;;;19.80;99.90;;;;;;5011997;28;20489;-77
2022/10/02 10:05:54;;;;;;;4.30;1.70;;;19.60;99.90;;;;;;4980145;28;20452;-76
2022/10/02 10:09:00;;;;;;;5.60;1.90;;;19.40;99.90;;;;;;5011116;28;20461;-77
2022/10/02 10:12:07;;;;;;;11.47;2.73;;;18.80;99.90;;;;;;5013358;28;20544;-75
2022/10/02 10:15:01;;;;;;;6.27;3.13;;;18.60;99.90;;;;;;4986890;28;20458;-78
2022/10/02 10:18:16;;;;;;;5.80;2.30;;;18.80;99.90;;;;;;5011563;28;20525;-77
2022/10/02 10:21:07;;;;;;;10.00;3.20;;;19.00;99.90;;;;;;5011459;28;20472;-77
2022/10/02 10:23:59;;;;;;;6.93;2.03;;;18.90;99.90;;;;;;5012043;28;20487;-75
2022/10/02 10:26:45;;;;;;;7.67;2.07;;;19.00;99.90;;;;;;5012588;28;20468;-76
2022/10/02 10:29:46;;;;;;;9.57;2.20;;;19.20;99.90;;;;;;5015762;28;20522;-74
2022/10/02 10:32:53;;;;;;;5.03;2.03;;;19.60;99.90;;;;;;5024165;28;20506;-78
2022/10/02 10:35:48;;;;;;;10.63;2.23;;;20.10;99.90;;;;;;5005551;28;20869;-78
2022/10/02 10:38:41;;;;;;;4.40;1.43;;;20.00;99.90;;;;;;5012510;28;20489;-76
2022/10/02 10:41:45;;;;;;;8.53;1.80;;;20.00;99.70;;;;;;5008104;28;20566;-76
2022/10/02 10:44:58;;;;;;;4.73;1.63;;;19.90;99.60;;;;;;5008862;28;20546;-77
2022/10/02 10:47:42;;;;;;;5.27;1.80;;;19.80;99.90;;;;;;5009673;28;20471;-74
2022/10/02 10:50:37;;;;;;;7.10;2.40;;;20.00;99.90;;;;;;5018188;28;20457;-74
2022/10/02 10:53:27;;;;;;;6.83;2.10;;;20.20;99.90;;;;;;5019389;28;20444;-75
2022/10/02 10:56:26;;;;;;;6.30;1.60;;;20.40;99.70;;;;;;5024958;28;20921;-75
2022/10/02 10:59:20;;;;;;;5.83;2.83;;;20.60;98.40;;;;;;5030704;28;20509;-76
2022/10/02 11:02:02;;;;;;;9.00;2.80;;;20.60;98.40;;;;;;5028992;28;20478;-75
2022/10/02 11:04:56;;;;;;;10.03;3.27;;;20.30;98.10;;;;;;5021003;28;20853;-75
2022/10/02 11:07:38;;;;;;;11.17;4.30;;;19.90;99.80;;;;;;5013394;28;20476;-77
2022/10/02 11:10:29;;;;;;;8.03;3.40;;;19.90;99.90;;;;;;5015042;28;20501;-76
2022/10/02 11:13:18;;;;;;;11.20;2.00;;;19.70;99.90;;;;;;5016774;28;20494;-77
2022/10/02 11:16:26;;;;;;;13.73;4.07;;;19.60;99.90;;;;;;5016465;28;20526;-78
2022/10/02 11:19:10;;;;;;;10.40;2.20;;;19.50;99.90;;;;;;5012283;28;20466;-77
2022/10/02 11:22:12;;;;;;;10.73;2.93;;;19.10;99.90;;;;;;5014534;28;20936;-74
2022/10/02 11:25:07;;;;;;;9.33;2.37;;;19.00;99.90;;;;;;4992341;28;20451;-74
2022/10/02 11:28:01;;;;;;;7.60;2.10;;;18.90;99.90;;;;;;5016613;28;20471;-75
2022/10/02 11:30:42;;;;;;;9.97;2.70;;;19.20;99.90;;;;;;5012930;28;20797;-77
2022/10/02 11:33:26;;;;;;;5.33;1.93;;;19.30;99.90;;;;;;5016133;28;20497;-75
2022/10/02 11:36:26;;;;;;;8.67;2.73;;;19.30;99.90;;;;;;5014899;28;20447;-76
2022/10/02 11:39:13;;;;;;;8.93;1.83;;;19.30;99.90;;;;;;5016344;28;20822;-75
2022/10/02 11:42:04;;;;;;;10.90;2.50;;;19.30;99.90;;;;;;5014063;28;20487;-77
2022/10/02 11:45:03;;;;;;;9.40;2.90;;;19.60;99.90;;;;;;5015344;28;20440;-78
2022/10/02 11:48:11;;;;;;;8.30;2.10;;;19.70;98.60;;;;;;5013863;28;20970;-76
2022/10/02 11:51:16;;;;;;;8.97;2.53;;;19.70;98.30;;;;;;4985898;28;20949;-72
2022/10/02 11:54:14;;;;;;;10.30;2.50;;;19.60;98.20;;;;;;5014579;28;20456;-73
2022/10/02 11:57:04;;;;;;;11.23;2.93;;;19.80;98.60;;;;;;5015242;28;20551;-78
2022/10/02 12:00:12;;;;;;;8.53;3.40;;;19.80;98.40;;;;;;5012699;28;20453;-77
2022/10/02 12:02:46;;;;;;;5.73;2.37;;;19.80;97.90;;;;;;4952741;29;20577;-77
2022/10/02 12:05:24;;;;;;;7.13;3.40;;;19.80;97.50;;;;;;5009372;28;20455;-77
2022/10/02 12:08:00;;;;;;;9.47;2.00;;;19.90;97.30;;;;;;5014210;28;20468;-76
2022/10/02 12:10:38;;;;;;;12.50;2.50;;;20.20;97.20;;;;;;5014060;28;20490;-75
2022/10/02 12:13:26;;;;;;;6.87;2.37;;;20.40;95.80;;;;;;5014635;28;20440;-76
2022/10/02 12:16:00;;;;;;;10.57;2.77;;;20.40;95.60;;;;;;5005740;28;20516;-77
2022/10/02 12:18:41;;;;;;;9.77;2.50;;;20.30;95.60;;;;;;5014317;28;20508;-76
2022/10/02 12:27:21;;;;;;;12.53;3.23;;;19.70;96.70;;;;;;5024435;28;20514;-75
2022/10/02 12:30:03;;;;;;;7.57;1.70;;;19.50;97.30;;;;;;5018024;28;20454;-76
2022/10/02 12:32:43;;;;;;;10.63;3.40;;;19.20;98.00;;;;;;5014651;28;21001;-78
2022/10/02 12:35:26;;;;;;;6.43;2.37;;;19.00;98.50;;;;;;5015450;28;20463;-76
2022/10/02 12:38:04;;;;;;;5.63;2.40;;;18.80;99.80;;;;;;5014792;28;20476;-76
2022/10/02 12:40:37;;;;;;;12.10;2.63;;;18.70;99.90;;;;;;5013156;28;20502;-76
2022/10/02 12:43:33;;;;;;;6.17;2.10;;;18.50;99.90;;;;;;5014627;28;20799;-76
2022/10/02 12:46:33;;;;;;;6.40;3.03;;;18.20;99.90;;;;;;5013414;28;20462;-75
2022/10/02 12:49:12;;;;;;;9.70;3.00;;;18.10;99.90;;;;;;5013660;28;20554;-78
2022/10/02 12:51:53;;;;;;;8.30;2.60;;;18.10;99.90;;;;;;5013161;28;20590;-75
2022/10/02 12:55:04;;;;;;;6.43;1.97;;;18.10;99.90;;;;;;5009673;28;20795;-75
2022/10/02 12:57:57;;;;;;;9.70;2.73;;;18.30;99.90;;;;;;5012290;28;20499;-77
2022/10/02 13:00:30;;;;;;;5.83;2.10;;;18.30;99.90;;;;;;5013599;28;20546;-77
2022/10/02 13:03:39;;;;;;;8.60;2.17;;;18.30;99.90;;;;;;5013837;28;20484;-77
2022/10/02 13:06:43;;;;;;;4.70;1.97;;;18.00;99.90;;;;;;5008760;28;20538;-77
2022/10/02 13:09:22;;;;;;;11.43;2.17;;;17.90;99.90;;;;;;5009793;28;20484;-76
2022/10/02 13:12:02;;;;;;;8.80;2.83;;;17.80;99.90;;;;;;5013305;28;20448;-77
2022/10/02 13:14:51;;;;;;;11.13;2.43;;;17.70;99.90;;;;;;5012927;28;20887;-75
2022/10/02 13:17:28;;;;;;;8.03;1.90;;;17.80;99.90;;;;;;5013518;28;20470;-75
2022/10/02 13:20:03;;;;;;;9.93;2.50;;;18.00;99.90;;;;;;5009345;28;20451;-77
2022/10/02 13:22:45;;;;;;;8.80;2.60;;;18.10;99.90;;;;;;5013927;28;20958;-75
2022/10/02 13:25:25;;;;;;;7.00;2.53;;;18.00;99.90;;;;;;5013907;28;20444;-78
2022/10/02 13:28:00;;;;;;;7.97;2.37;;;18.00;99.90;;;;;;5007308;28;20474;-74
2022/10/02 13:30:32;;;;;;;8.20;2.43;;;18.00;99.90;;;;;;5012213;28;20483;-75
2022/10/02 13:33:17;;;;;;;7.20;2.20;;;18.10;99.90;;;;;;5013797;28;20531;-73
2022/10/02 13:36:00;;;;;;;7.93;2.47;;;18.30;99.90;;;;;;5010415;28;20462;-78
2022/10/02 13:39:00;;;;;;;11.33;2.83;;;18.40;99.90;;;;;;5013573;28;20546;-74
2022/10/02 13:41:41;;;;;;;12.37;2.73;;;18.40;99.90;;;;;;5010796;28;20549;-76
2022/10/02 13:44:17;;;;;;;6.73;2.00;;;18.50;99.90;;;;;;5008611;28;20480;-78
2022/10/02 13:47:05;;;;;;;18.20;3.10;;;18.30;99.90;;;;;;5012541;28;20447;-75
2022/10/02 13:49:46;;;;;;;13.37;3.20;;;18.30;99.90;;;;;;5017874;28;20472;-77
2022/10/02 13:52:24;;;;;;;6.30;2.50;;;18.40;99.90;;;;;;5012080;28;20532;-79
2022/10/02 13:55:10;;;;;;;8.77;2.50;;;18.50;99.90;;;;;;5015285;28;20435;-77
2022/10/02 13:57:54;;;;;;;6.50;2.27;;;18.40;99.90;;;;;;5013243;28;20556;-78
2022/10/02 14:00:52;;;;;;;12.47;2.50;;;18.40;99.90;;;;;;5011924;28;20514;-74